KINS/INS METAR and TAF weather

Enter ICAO airport designator
Station Type Date Time Source
KINS METAR 2021/03/02 12:58 UTC NOAA

KINS 021258Z AUTO 24004KT 10SM CLR M02/M15 A3011 RMK AO2 SLP190 T10211155 $


Station Type Date Time Source
KINS Decoded METAR 2021/03/02 12:58 UTC NOAA

Indian Springs, Indian Springs Auxiliary AFLD Nellis AFB, NV, United States (KINS) 36-35N 115-40W
Mar 02, 2021 - 07:58 AM EST / 2021.03.02 1258 UTC
Wind: from the WSW (240 degrees) at 5 MPH (4 KT):0
Visibility: 10 mile(s):0
Sky conditions: clear
Temperature: 28.2 F (-2.1 C)
Windchill: 23 F (-5 C):1
Dew Point: 4.1 F (-15.5 C)
Relative Humidity: 35%
Pressure (altimeter): 30.11 in. Hg (1019 hPa)
ob: KINS 021258Z AUTO 24004KT 10SM CLR M02/M15 A3011 RMK AO2 SLP190 T10211155
cycle: 13

Station Type Date Time Source
KINS TAF 2021/03/02 13:03 UTC NOAA

TAF TAF KINS 021255Z 0213/0319 VRB06KT 9999 FEW250 QNH3004INS
BECMG 0219/0220 12010G15KT 9999 FEW250 QNH2987INS
BECMG 0302/0303 23009KT 9999 SCT250 QNH2984INS
BECMG 0311/0312 16012KT 9999 BKN150 QNH2981INS TX19/0223Z TNM03/0213Z

Example: see airport list